Wall, South Dakota
Current Conditions -  °F | °C
As of 2:55 PM on Monday 22 Dec 2014 (Local Time) from KPHP Reporting Station
Light Snow Light Snow  
Wind Chill: 19°   Ceiling: 5500
Heat Index: 33°   Visibility: 6mi
Dew Point: 30°   Wind: 29mph
Humidity: 89%   Direction: 330°NNW
Pressure: 29.52"   Gusts: 38mph
Location:  43.99°N, 102.24°W
Report Text: KPHP 222155Z AUTO 33025G33KT 6SM -SN BR FEW025 BKN055 OVC070 01/M01 A2952 RMK AO2 PK WND 33034/2140 SLP009 P0000 T00061011
Loading
Personal Weather Stations






























Interactive Weather Map New forecast layout! Learn more

10-Day Weather Forecast

Advertisements
Track Severe Weather on mobile